Time;durP1;ratioP1;P1;durP2;ratioP2;P2;SDS_P1;SDS_P2;PMS_P1;PMS_P2;Temp;Humidity;BMP_temperature;BMP_pressure;BME280_temperature;BME280_humidity;BME280_pressure;Samples;Min_cycle;Max_cycle;Signal;HPM_P1;HPM_P2
2021/12/24 00:00:44;;;;;;;34.75;14.25;;;5.40;99.90;;;;;;5071798;28;20052;-46
2021/12/24 00:03:10;;;;;;;33.00;12.38;;;5.40;99.90;;;;;;5055353;28;20049;-47
2021/12/24 00:05:37;;;;;;;34.58;13.95;;;5.40;99.90;;;;;;5060000;28;20037;-46
2021/12/24 00:08:04;;;;;;;34.60;14.73;;;5.40;99.90;;;;;;5054139;28;20383;-46
2021/12/24 00:10:32;;;;;;;33.75;13.55;;;5.40;99.90;;;;;;5072261;28;20294;-46
2021/12/24 00:13:04;;;;;;;32.00;12.85;;;5.50;99.90;;;;;;5072052;28;20515;-46
2021/12/24 00:18:06;;;;;;;31.80;13.55;;;5.50;99.90;;;;;;5067340;28;20513;-46
2021/12/24 00:36:41;;;;;;;28.25;13.00;;;5.60;99.90;;;;;;5061039;28;20048;-48
2021/12/24 00:39:07;;;;;;;32.90;13.93;;;5.50;99.90;;;;;;5052102;28;20051;-47
2021/12/24 00:41:33;;;;;;;32.75;12.32;;;5.60;99.90;;;;;;5043923;28;20087;-47
2021/12/24 00:43:59;;;;;;;38.10;14.63;;;5.60;99.90;;;;;;5053887;28;20428;-47
2021/12/24 00:46:25;;;;;;;30.20;12.35;;;5.60;99.90;;;;;;5051646;28;20076;-47
2021/12/24 00:48:53;;;;;;;30.80;12.98;;;5.60;99.90;;;;;;5055367;28;20592;-46
2021/12/24 00:51:29;;;;;;;27.50;12.15;;;5.60;99.90;;;;;;5054527;28;20098;-47
2021/12/24 00:56:22;;;;;;;26.42;11.25;;;5.60;99.90;;;;;;5036248;28;20102;-46
2021/12/24 00:58:48;;;;;;;19.83;9.67;;;5.60;99.90;;;;;;5051801;28;20111;-46
2021/12/24 01:01:15;;;;;;;25.65;12.77;;;5.60;99.90;;;;;;5051794;28;20072;-47
2021/12/24 01:03:42;;;;;;;25.90;10.80;;;5.60;99.90;;;;;;5062984;28;20132;-46
2021/12/24 01:06:08;;;;;;;19.08;9.55;;;5.70;99.90;;;;;;5051475;28;20064;-48
2021/12/24 01:08:34;;;;;;;22.98;9.13;;;5.70;99.90;;;;;;5033327;28;20124;-46
2021/12/24 01:11:04;;;;;;;21.92;9.77;;;5.70;99.90;;;;;;5051020;28;20041;-46
2021/12/24 01:13:30;;;;;;;24.35;10.18;;;5.60;99.90;;;;;;5051565;28;20037;-47
2021/12/24 01:16:06;;;;;;;24.88;9.27;;;5.70;99.90;;;;;;5056623;28;20371;-47
2021/12/24 01:23:51;;;;;;;22.10;8.88;;;5.60;99.90;;;;;;5042071;28;20075;-47
2021/12/24 01:26:24;;;;;;;20.63;9.43;;;5.60;99.90;;;;;;5046330;28;20055;-46
2021/12/24 01:44:51;;;;;;;15.90;7.60;;;5.80;99.90;;;;;;5049603;28;20052;-47
2021/12/24 01:47:18;;;;;;;18.23;7.95;;;5.80;99.90;;;;;;5050407;28;20049;-47
2021/12/24 01:49:44;;;;;;;12.30;5.88;;;5.80;99.90;;;;;;5049284;28;20426;-47
2021/12/24 01:52:11;;;;;;;14.27;6.88;;;5.80;99.90;;;;;;5062834;28;20040;-47
2021/12/24 01:54:38;;;;;;;17.08;7.07;;;5.90;99.90;;;;;;5050622;28;20045;-48
2021/12/24 01:57:05;;;;;;;14.27;7.00;;;5.90;99.90;;;;;;5080837;28;20113;-49
2021/12/24 01:59:31;;;;;;;14.48;7.10;;;5.90;99.90;;;;;;5084617;28;20063;-47
2021/12/24 02:01:57;;;;;;;15.40;6.53;;;6.00;99.90;;;;;;5063060;28;20056;-46
2021/12/24 02:04:23;;;;;;;15.30;6.63;;;6.00;99.90;;;;;;5049294;28;20517;-47
2021/12/24 02:06:49;;;;;;;11.32;5.65;;;6.00;99.90;;;;;;5056108;28;20041;-48
2021/12/24 02:09:16;;;;;;;12.82;5.85;;;6.00;99.90;;;;;;5083054;28;20037;-48
2021/12/24 02:11:42;;;;;;;11.60;5.20;;;6.00;99.90;;;;;;5050368;28;20090;-49
2021/12/24 02:14:12;;;;;;;12.23;5.40;;;6.10;99.90;;;;;;5049084;28;20519;-46
2021/12/24 02:30:08;;;;;;;8.90;4.75;;;6.20;99.90;;;;;;5058960;28;20486;-49
2021/12/24 02:32:34;;;;;;;8.23;4.25;;;6.20;99.90;;;;;;5052004;28;20044;-48
2021/12/24 02:35:01;;;;;;;8.73;4.80;;;6.20;99.90;;;;;;5051834;28;20368;-47
2021/12/24 02:37:28;;;;;;;10.02;4.90;;;6.30;99.90;;;;;;5054064;28;20070;-46
2021/12/24 02:39:55;;;;;;;10.20;5.05;;;6.80;99.90;;;;;;5069513;28;20115;-47
2021/12/24 02:42:22;;;;;;;10.60;5.03;;;6.30;99.90;;;;;;5061494;28;20053;-48
2021/12/24 02:44:50;;;;;;;9.07;4.57;;;6.30;99.90;;;;;;5048470;28;20144;-47
2021/12/24 02:55:05;;;;;;;12.25;5.75;;;6.30;99.90;;;;;;5049492;28;20037;-46
2021/12/24 02:57:33;;;;;;;10.52;5.85;;;6.30;99.90;;;;;;5049580;28;20045;-47
2021/12/24 03:00:06;;;;;;;12.75;5.88;;;6.40;99.90;;;;;;5081732;28;20045;-46
2021/12/24 03:02:32;;;;;;;10.85;5.22;;;6.40;99.90;;;;;;5049429;28;20051;-47
2021/12/24 03:04:59;;;;;;;10.90;5.63;;;6.40;99.90;;;;;;5053258;28;20050;-46
2021/12/24 03:07:25;;;;;;;15.90;5.80;;;6.40;99.90;;;;;;5058800;28;20049;-46
2021/12/24 03:09:53;;;;;;;11.85;4.95;;;6.50;99.90;;;;;;5064986;28;20104;-48
2021/12/24 03:12:19;;;;;;;11.23;5.60;;;6.50;99.90;;;;;;5049204;28;20049;-47
2021/12/24 03:14:45;;;;;;;12.43;5.78;;;6.50;99.90;;;;;;5060404;28;20036;-47
2021/12/24 03:17:16;;;;;;;13.82;5.57;;;6.60;99.90;;;;;;5055720;28;20063;-46
2021/12/24 03:19:42;;;;;;;15.38;6.03;;;6.60;99.90;;;;;;5068088;28;20518;-47
2021/12/24 03:24:36;;;;;;;12.95;6.40;;;6.60;99.90;;;;;;5076691;28;20372;-47
2021/12/24 03:27:06;;;;;;;17.10;6.60;;;6.60;99.90;;;;;;5063564;28;20047;-46
2021/12/24 03:29:32;;;;;;;17.80;7.45;;;6.70;99.90;;;;;;5073865;28;20045;-47
2021/12/24 03:31:58;;;;;;;19.83;7.30;;;6.70;99.90;;;;;;5075928;28;20052;-46
2021/12/24 03:34:24;;;;;;;27.23;8.82;;;6.70;99.90;;;;;;5054872;28;20037;-47
2021/12/24 03:36:51;;;;;;;27.75;9.07;;;6.80;99.90;;;;;;5054691;28;20041;-48
2021/12/24 03:39:18;;;;;;;27.13;9.02;;;6.80;99.90;;;;;;5073909;28;20134;-48
2021/12/24 03:41:45;;;;;;;27.08;9.98;;;6.80;99.90;;;;;;5075922;28;20199;-48
2021/12/24 03:44:13;;;;;;;29.48;9.88;;;6.80;99.90;;;;;;5038329;28;20048;-46
2021/12/24 03:46:58;;;;;;;28.60;10.82;;;6.80;99.90;;;;;;5065963;28;20059;-46
2021/12/24 03:49:40;;;;;;;29.88;9.98;;;6.90;99.90;;;;;;5055753;28;20063;-46
2021/12/24 03:54:58;;;;;;;34.10;11.18;;;6.90;99.90;;;;;;5062812;28;20102;-46
2021/12/24 03:57:33;;;;;;;45.13;12.50;;;6.90;99.90;;;;;;5064168;28;20036;-47
2021/12/24 04:00:07;;;;;;;34.20;11.25;;;6.90;99.90;;;;;;5062801;28;20044;-48
2021/12/24 04:02:33;;;;;;;40.63;11.93;;;6.90;99.90;;;;;;5075314;28;20040;-46
2021/12/24 04:04:59;;;;;;;48.72;12.68;;;7.00;99.90;;;;;;5057602;28;20110;-47
2021/12/24 04:07:26;;;;;;;44.83;12.98;;;7.00;99.90;;;;;;5037133;28;20453;-46
2021/12/24 04:10:06;;;;;;;45.80;13.70;;;7.00;99.90;;;;;;5054069;28;20037;-46
2021/12/24 04:12:34;;;;;;;50.28;14.18;;;7.00;99.90;;;;;;5055756;28;20048;-47
2021/12/24 04:15:01;;;;;;;43.45;13.63;;;7.00;99.90;;;;;;5075162;28;20060;-47
2021/12/24 04:17:31;;;;;;;52.15;13.65;;;7.10;99.90;;;;;;5056978;28;20060;-47
2021/12/24 04:25:21;;;;;;;48.92;13.40;;;7.20;99.90;;;;;;5061305;28;20087;-47
2021/12/24 04:27:49;;;;;;;41.17;12.13;;;7.20;99.90;;;;;;5071851;28;20048;-46
2021/12/24 04:30:24;;;;;;;50.72;13.07;;;7.20;99.90;;;;;;5072279;28;20074;-47
2021/12/24 04:32:58;;;;;;;48.83;13.50;;;7.30;99.90;;;;;;5065472;28;20041;-47
2021/12/24 04:51:26;;;;;;;46.22;14.18;;;7.50;99.90;;;;;;5066965;28;20202;-45
2021/12/24 05:05:35;;;;;;;60.88;18.65;;;7.60;99.90;;;;;;5055863;28;20041;-46
2021/12/24 05:10:22;;;;;;;55.30;18.08;;;7.70;99.90;;;;;;5059154;28;20060;-47
2021/12/24 05:12:50;;;;;;;59.55;19.08;;;7.70;99.90;;;;;;5051754;28;20451;-46
2021/12/24 05:15:18;;;;;;;55.97;21.02;;;7.70;99.90;;;;;;5085697;28;20294;-46
2021/12/24 05:22:57;;;;;;;60.75;19.55;;;7.80;99.90;;;;;;5056649;28;20052;-46
2021/12/24 05:25:22;;;;;;;65.35;19.77;;;7.80;99.90;;;;;;5059200;28;20045;-46
2021/12/24 05:27:51;;;;;;;62.33;20.65;;;7.80;99.90;;;;;;5054639;28;20044;-46
2021/12/24 05:30:18;;;;;;;61.45;18.85;;;7.80;99.90;;;;;;5069622;28;20383;-47
2021/12/24 05:32:45;;;;;;;52.73;21.00;;;7.80;99.90;;;;;;5057422;28;20040;-46
2021/12/24 05:35:12;;;;;;;56.90;19.80;;;7.80;99.90;;;;;;5057308;28;20048;-46
2021/12/24 05:37:38;;;;;;;64.38;21.75;;;7.90;99.90;;;;;;5049458;28;20287;-48
2021/12/24 05:40:06;;;;;;;63.55;21.65;;;7.90;99.90;;;;;;5050779;28;20068;-46
2021/12/24 05:42:33;;;;;;;62.38;22.15;;;7.90;99.90;;;;;;5096284;28;20114;-46
2021/12/24 05:45:05;;;;;;;;;;;7.90;99.90;;;;;;5049769;28;20076;-47
2021/12/24 05:47:31;;;;;;;56.72;20.95;;;7.90;99.90;;;;;;5085091;28;19928;-46
2021/12/24 05:49:58;;;;;;;64.90;21.15;;;7.90;99.90;;;;;;5050747;28;20047;-46
2021/12/24 05:52:24;;;;;;;65.32;21.15;;;7.90;99.90;;;;;;5059312;28;20113;-46
2021/12/24 05:54:50;;;;;;;52.38;20.35;;;8.00;99.90;;;;;;5049002;28;20041;-46
2021/12/24 05:57:16;;;;;;;55.10;21.10;;;8.00;99.90;;;;;;5049436;28;20055;-46
2021/12/24 05:59:42;;;;;;;62.90;20.83;;;8.00;99.90;;;;;;5050684;28;20044;-46
2021/12/24 06:02:15;;;;;;;56.03;19.55;;;8.00;99.90;;;;;;5055050;28;20080;-46
2021/12/24 06:04:41;;;;;;;56.03;19.00;;;8.00;99.90;;;;;;5050153;28;20175;-48
2021/12/24 06:07:07;;;;;;;59.85;18.60;;;8.00;99.90;;;;;;5055786;28;20508;-46
2021/12/24 06:09:33;;;;;;;37.58;15.93;;;8.00;99.90;;;;;;5065334;28;20096;-47
2021/12/24 06:12:02;;;;;;;40.45;15.88;;;8.00;99.90;;;;;;5032092;28;20055;-46
2021/12/24 06:14:28;;;;;;;51.58;16.83;;;8.00;99.90;;;;;;5048508;28;20053;-48
2021/12/24 06:17:09;;;;;;;33.47;15.32;;;8.00;99.90;;;;;;5049778;28;20077;-47
2021/12/24 06:19:36;;;;;;;45.72;14.68;;;8.00;99.90;;;;;;5057518;28;20398;-46
2021/12/24 06:22:02;;;;;;;49.05;16.13;;;8.00;99.90;;;;;;5057957;28;20136;-47
2021/12/24 06:24:28;;;;;;;40.53;14.60;;;8.00;99.90;;;;;;5082249;28;20303;-46
2021/12/24 06:26:54;;;;;;;36.47;13.60;;;8.00;99.90;;;;;;5081794;28;20041;-47
2021/12/24 06:29:23;;;;;;;40.47;14.07;;;8.00;99.90;;;;;;5058817;28;20504;-47
2021/12/24 06:31:49;;;;;;;39.97;12.95;;;8.00;99.90;;;;;;5041285;28;20047;-47
2021/12/24 06:34:15;;;;;;;38.65;12.82;;;8.00;99.90;;;;;;5061729;28;20052;-45
2021/12/24 06:36:44;;;;;;;36.20;12.15;;;8.00;99.90;;;;;;5051632;28;20072;-48
2021/12/24 06:39:11;;;;;;;34.50;11.88;;;8.00;99.90;;;;;;5068065;28;20040;-47
2021/12/24 06:41:37;;;;;;;34.20;11.00;;;7.90;99.90;;;;;;5060911;28;20079;-47
2021/12/24 06:44:05;;;;;;;28.63;10.98;;;7.90;99.90;;;;;;5032792;28;20041;-46
2021/12/24 06:46:33;;;;;;;32.65;11.77;;;7.90;99.90;;;;;;5061725;28;20037;-47
2021/12/24 06:48:59;;;;;;;38.53;10.52;;;7.90;99.90;;;;;;5060199;28;20506;-46
2021/12/24 06:51:26;;;;;;;41.88;10.73;;;8.00;99.90;;;;;;5059951;28;20601;-47
2021/12/24 06:53:53;;;;;;;27.00;9.70;;;7.90;99.90;;;;;;5049978;28;20445;-46
2021/12/24 06:56:20;;;;;;;27.20;9.10;;;7.90;99.90;;;;;;5049426;28;20066;-47
2021/12/24 06:58:46;;;;;;;27.60;10.80;;;7.90;99.90;;;;;;5051320;28;20114;-46
2021/12/24 07:01:13;;;;;;;27.60;9.90;;;7.90;99.90;;;;;;5048012;28;20573;-48
2021/12/24 07:03:41;;;;;;;27.88;9.95;;;7.90;99.90;;;;;;5049524;28;20215;-46
2021/12/24 07:06:08;;;;;;;28.17;9.98;;;7.90;99.90;;;;;;5044776;28;20383;-47
2021/12/24 07:08:35;;;;;;;29.42;9.77;;;7.90;99.90;;;;;;5050578;28;20048;-47
2021/12/24 07:11:02;;;;;;;30.60;9.95;;;7.90;99.90;;;;;;5059157;28;20045;-47
2021/12/24 07:13:28;;;;;;;30.33;9.75;;;7.90;99.90;;;;;;5051474;28;20366;-46
2021/12/24 07:15:54;;;;;;;30.13;9.43;;;8.40;99.90;;;;;;5055421;28;20040;-48
2021/12/24 07:18:21;;;;;;;35.55;9.00;;;7.80;99.90;;;;;;5049347;28;20499;-45
2021/12/24 07:20:47;;;;;;;22.08;8.52;;;7.80;99.90;;;;;;5047820;28;20041;-46
2021/12/24 07:23:13;;;;;;;26.08;9.00;;;7.70;99.90;;;;;;5049513;28;20498;-46
2021/12/24 07:25:40;;;;;;;17.98;7.43;;;7.70;99.90;;;;;;5047909;28;20049;-45
2021/12/24 07:28:06;;;;;;;21.40;6.90;;;7.60;99.90;;;;;;5050318;28;20045;-45
2021/12/24 07:30:33;;;;;;;13.73;5.43;;;7.50;99.90;;;;;;5065955;28;20040;-47
2021/12/24 07:32:59;;;;;;;8.93;4.47;;;7.50;99.90;;;;;;5056098;28;20463;-45
2021/12/24 07:35:25;;;;;;;10.32;3.92;;;7.40;99.90;;;;;;5047876;28;20051;-45
2021/12/24 07:37:52;;;;;;;13.98;4.07;;;7.40;99.90;;;;;;5047906;28;20099;-46
2021/12/24 07:40:19;;;;;;;10.77;4.30;;;7.40;99.90;;;;;;5047585;28;20044;-49
2021/12/24 07:42:47;;;;;;;12.90;4.73;;;7.30;99.90;;;;;;5031637;28;20052;-45
2021/12/24 07:45:14;;;;;;;11.02;4.32;;;7.40;99.90;;;;;;5049068;28;20037;-45
2021/12/24 07:47:43;;;;;;;8.77;3.72;;;7.30;99.90;;;;;;5058518;28;20092;-46
2021/12/24 07:52:44;;;;;;;8.55;3.35;;;7.30;99.90;;;;;;5058732;28;20116;-45
2021/12/24 07:55:12;;;;;;;8.88;3.42;;;7.30;99.90;;;;;;5047521;28;20092;-46
2021/12/24 07:57:38;;;;;;;11.70;3.85;;;7.30;99.90;;;;;;5047928;28;20091;-46
2021/12/24 08:00:07;;;;;;;8.90;3.50;;;7.30;99.90;;;;;;5033768;28;20519;-45
2021/12/24 08:02:33;;;;;;;9.55;3.63;;;7.30;99.90;;;;;;5052736;28;20399;-46
2021/12/24 08:04:59;;;;;;;12.32;4.72;;;7.30;99.90;;;;;;5052746;28;20044;-46
2021/12/24 08:07:27;;;;;;;11.23;5.25;;;7.20;99.90;;;;;;5041000;28;20103;-46
2021/12/24 08:09:53;;;;;;;;;;;7.30;99.90;;;;;;5062005;28;20115;-47
2021/12/24 08:12:20;;;;;;;16.55;5.93;;;7.30;99.90;;;;;;5050069;28;20406;-45
2021/12/24 08:14:47;;;;;;;17.73;6.28;;;7.30;99.90;;;;;;5067354;28;20048;-45
2021/12/24 08:17:13;;;;;;;19.70;7.07;;;7.30;99.90;;;;;;5068139;28;20059;-47
2021/12/24 08:19:40;;;;;;;16.80;6.60;;;7.30;99.90;;;;;;5049170;28;20349;-46
2021/12/24 08:22:06;;;;;;;19.10;7.17;;;7.30;99.90;;;;;;5063849;28;20286;-45
2021/12/24 08:24:33;;;;;;;21.20;8.15;;;7.30;99.90;;;;;;5067386;28;20422;-45
2021/12/24 08:26:59;;;;;;;16.23;7.88;;;7.30;99.90;;;;;;5063979;28;20072;-45
2021/12/24 08:29:25;;;;;;;17.02;5.80;;;7.30;99.90;;;;;;5066571;28;20090;-45
2021/12/24 08:31:52;;;;;;;16.95;4.90;;;7.30;99.90;;;;;;5067446;28;20048;-45
2021/12/24 08:34:20;;;;;;;20.48;5.30;;;7.30;99.90;;;;;;5064661;28;20431;-45
2021/12/24 08:36:50;;;;;;;19.17;6.20;;;7.20;99.90;;;;;;5067803;28;20124;-46
2021/12/24 08:39:19;;;;;;;22.42;6.45;;;7.20;99.90;;;;;;5056606;28;20047;-46
2021/12/24 08:41:49;;;;;;;20.85;7.55;;;7.20;99.90;;;;;;5096284;28;20040;-46
2021/12/24 08:44:15;;;;;;;17.73;6.90;;;7.20;99.90;;;;;;5068651;28;20151;-46
2021/12/24 08:46:41;;;;;;;25.00;8.38;;;7.20;99.90;;;;;;5070123;28;20052;-45
2021/12/24 08:49:07;;;;;;;23.58;9.75;;;7.20;99.90;;;;;;5069617;28;20048;-45
2021/12/24 08:51:33;;;;;;;31.17;10.07;;;7.20;99.90;;;;;;5067433;28;20059;-45
2021/12/24 08:53:59;;;;;;;34.88;11.38;;;7.20;99.90;;;;;;5068080;28;20497;-45
2021/12/24 08:56:25;;;;;;;30.08;10.48;;;7.20;99.90;;;;;;5067731;28;20131;-49
2021/12/24 08:58:51;;;;;;;31.10;12.35;;;7.20;99.90;;;;;;5066828;28;20123;-45
2021/12/24 09:01:18;;;;;;;36.33;11.80;;;7.20;99.90;;;;;;5068981;28;20048;-47
2021/12/24 09:03:44;;;;;;;28.58;10.27;;;7.20;99.90;;;;;;5066044;28;20033;-45
2021/12/24 09:06:10;;;;;;;7.40;3.97;;;7.20;99.90;;;;;;5069790;28;20082;-45
2021/12/24 09:08:36;;;;;;;7.75;4.20;;;7.10;99.90;;;;;;5061785;28;20471;-45
2021/12/24 09:11:02;;;;;;;5.97;3.03;;;6.90;99.90;;;;;;5069119;28;20191;-45
2021/12/24 09:13:29;;;;;;;5.18;2.47;;;6.80;99.90;;;;;;5032885;28;20051;-46
2021/12/24 09:15:56;;;;;;;6.63;3.28;;;6.60;99.90;;;;;;5051846;28;20044;-45
2021/12/24 09:18:22;;;;;;;4.20;2.63;;;6.50;99.90;;;;;;5067644;28;20385;-45
2021/12/24 09:20:48;;;;;;;9.02;3.55;;;6.40;99.90;;;;;;5069557;28;20098;-45
2021/12/24 09:23:15;;;;;;;6.75;3.22;;;6.30;99.90;;;;;;5069168;28;20136;-46
2021/12/24 09:25:41;;;;;;;7.97;3.40;;;6.20;99.90;;;;;;5068206;28;20371;-45
2021/12/24 09:28:08;;;;;;;6.70;3.10;;;6.10;99.90;;;;;;5052506;28;20425;-46
2021/12/24 09:30:34;;;;;;;5.95;3.28;;;6.10;99.90;;;;;;5063115;28;20467;-46
2021/12/24 09:33:02;;;;;;;8.53;3.40;;;6.00;99.90;;;;;;5068561;28;20119;-46
2021/12/24 09:35:29;;;;;;;7.95;3.45;;;5.90;99.90;;;;;;5067380;28;20106;-45
2021/12/24 09:37:58;;;;;;;8.85;3.70;;;5.90;99.90;;;;;;5038454;28;20136;-47
2021/12/24 09:40:25;;;;;;;12.00;5.13;;;5.90;99.90;;;;;;5059446;28;20340;-46
2021/12/24 09:42:52;;;;;;;9.13;5.05;;;5.80;99.90;;;;;;5050464;28;20436;-46
2021/12/24 09:45:18;;;;;;;10.77;5.00;;;6.00;99.90;;;;;;5084774;28;20043;-47
2021/12/24 09:47:44;;;;;;;10.20;4.90;;;5.80;99.90;;;;;;5052901;28;20040;-46
2021/12/24 09:50:17;;;;;;;12.07;5.15;;;5.80;99.90;;;;;;5049742;28;20033;-47
2021/12/24 09:52:44;;;;;;;11.02;5.63;;;5.80;99.90;;;;;;5057940;28;20067;-45
2021/12/24 09:55:29;;;;;;;10.50;4.85;;;5.80;99.90;;;;;;5070401;28;20044;-46
2021/12/24 09:57:56;;;;;;;10.23;4.85;;;5.80;99.90;;;;;;5067612;28;20533;-46
2021/12/24 10:00:24;;;;;;;12.40;5.57;;;5.80;99.90;;;;;;5048585;28;20040;-45
2021/12/24 10:02:54;;;;;;;9.98;4.95;;;5.70;99.90;;;;;;5048926;28;20056;-46
2021/12/24 10:05:32;;;;;;;9.45;4.75;;;5.70;99.90;;;;;;5051782;28;20135;-46
2021/12/24 10:08:02;;;;;;;8.95;4.20;;;5.70;99.90;;;;;;5052746;28;20101;-46
2021/12/24 10:10:30;;;;;;;8.38;3.80;;;5.70;99.90;;;;;;5049172;28;20044;-45
2021/12/24 10:13:16;;;;;;;9.05;3.88;;;5.70;99.90;;;;;;5065932;28;20053;-46
2021/12/24 10:15:56;;;;;;;7.57;3.78;;;5.70;99.90;;;;;;5054108;28;20090;-46
2021/12/24 10:18:34;;;;;;;9.13;3.90;;;5.70;99.90;;;;;;5052490;28;20049;-46
2021/12/24 10:21:10;;;;;;;7.43;4.05;;;5.60;99.90;;;;;;5056351;28;20048;-45
2021/12/24 10:24:00;;;;;;;6.90;3.80;;;5.70;99.90;;;;;;5066797;28;20478;-45
2021/12/24 10:26:37;;;;;;;6.53;3.28;;;5.60;99.90;;;;;;5064031;28;20493;-46
2021/12/24 10:29:12;;;;;;;9.67;4.50;;;5.60;99.90;;;;;;5064229;28;20040;-45
2021/12/24 10:31:39;;;;;;;7.47;4.00;;;5.50;99.90;;;;;;5067710;28;20294;-47
2021/12/24 10:34:11;;;;;;;8.63;4.05;;;5.50;99.90;;;;;;5064447;28;20086;-46
2021/12/24 10:36:50;;;;;;;8.75;4.30;;;5.50;99.90;;;;;;5047994;28;20072;-45
2021/12/24 10:39:17;;;;;;;9.25;4.75;;;5.50;99.90;;;;;;5060935;28;20513;-45
2021/12/24 10:41:45;;;;;;;7.40;3.78;;;5.50;99.90;;;;;;5061039;28;20636;-45
2021/12/24 10:44:26;;;;;;;9.30;4.47;;;5.50;99.90;;;;;;5068152;28;20055;-46
2021/12/24 10:47:15;;;;;;;50.22;46.75;;;5.40;99.90;;;;;;5062041;28;20463;-46
2021/12/24 10:49:54;;;;;;;50.40;47.15;;;5.50;99.90;;;;;;5047982;28;20219;-46
2021/12/24 10:54:52;;;;;;;51.17;47.78;;;5.40;99.90;;;;;;5069180;28;20055;-45
2021/12/24 10:57:25;;;;;;;50.72;47.38;;;5.30;99.90;;;;;;5048254;28;20432;-47
2021/12/24 10:59:54;;;;;;;51.42;48.13;;;5.30;99.90;;;;;;5063806;28;20123;-46
2021/12/24 11:02:26;;;;;;;51.67;48.13;;;5.30;99.90;;;;;;5069259;28;20040;-45
2021/12/24 11:04:53;;;;;;;50.80;47.55;;;5.30;99.90;;;;;;5065084;28;20116;-44
2021/12/24 11:07:40;;;;;;;51.28;48.03;;;5.30;99.90;;;;;;5055466;28;20041;-45
2021/12/24 11:10:12;;;;;;;51.60;48.20;;;5.30;99.90;;;;;;5049401;28;20036;-46
2021/12/24 11:12:50;;;;;;;51.88;48.42;;;5.20;99.90;;;;;;5048484;28;20076;-46
2021/12/24 11:15:17;;;;;;;;;;;5.20;99.90;;;;;;5051713;28;20037;-46
2021/12/24 11:17:43;;;;;;;50.53;47.40;;;5.20;99.90;;;;;;5065396;28;19924;-46
2021/12/24 11:20:10;;;;;;;50.80;47.70;;;5.20;99.90;;;;;;5048158;28;20073;-48
2021/12/24 11:23:10;;;;;;;50.85;47.50;;;5.20;99.90;;;;;;5047830;28;20047;-45
2021/12/24 11:25:51;;;;;;;51.88;48.35;;;5.20;99.90;;;;;;5030112;28;20053;-46
2021/12/24 11:28:18;;;;;;;51.80;48.60;;;5.20;99.90;;;;;;5048016;28;20037;-47
2021/12/24 11:30:49;;;;;;;51.35;47.97;;;5.20;99.90;;;;;;5084274;28;20041;-46
2021/12/24 11:33:18;;;;;;;50.88;47.60;;;5.20;99.90;;;;;;5050979;28;20487;-47
2021/12/24 11:35:46;;;;;;;51.95;48.47;;;5.20;99.90;;;;;;5056399;28;20514;-47
2021/12/24 11:38:19;;;;;;;50.33;47.33;;;5.20;99.90;;;;;;5062846;28;20075;-47
2021/12/24 11:40:47;;;;;;;50.97;47.88;;;5.20;99.90;;;;;;5037197;28;20110;-46
2021/12/24 11:43:14;;;;;;;;;;;5.20;99.90;;;;;;5047338;28;20072;-46
2021/12/24 11:45:40;;;;;;;52.35;48.92;;;5.20;99.90;;;;;;5054708;28;20007;-45
2021/12/24 11:48:06;;;;;;;50.35;47.25;;;5.20;99.90;;;;;;5047254;28;20040;-45
2021/12/24 11:50:33;;;;;;;51.97;48.63;;;5.10;99.90;;;;;;5058693;28;20032;-47
2021/12/24 11:53:04;;;;;;;51.55;48.15;;;5.20;99.90;;;;;;5070844;28;20039;-46
2021/12/24 11:55:44;;;;;;;51.30;48.10;;;5.20;99.90;;;;;;5080484;28;20032;-46
2021/12/24 11:58:20;;;;;;;51.70;48.20;;;5.20;99.90;;;;;;5063284;28;20048;-46
2021/12/24 12:00:51;;;;;;;49.97;46.97;;;5.20;99.90;;;;;;5065988;28;20049;-45
2021/12/24 12:03:45;;;;;;;51.00;47.80;;;5.20;99.90;;;;;;5069898;28;20112;-46
2021/12/24 12:06:33;;;;;;;51.03;47.83;;;5.20;99.90;;;;;;5070280;28;20040;-46
2021/12/24 12:09:10;;;;;;;51.15;47.90;;;5.20;99.90;;;;;;5064046;28;20041;-46
2021/12/24 12:11:39;;;;;;;51.38;48.13;;;5.20;99.90;;;;;;5067695;28;20546;-48
2021/12/24 12:14:11;;;;;;;52.80;49.28;;;5.20;99.90;;;;;;5060060;28;20044;-46
2021/12/24 12:16:42;;;;;;;50.28;46.95;;;5.30;99.90;;;;;;5071223;28;20045;-46
2021/12/24 12:19:16;;;;;;;51.05;47.83;;;5.30;99.90;;;;;;5053768;28;20056;-47
2021/12/24 12:22:19;;;;;;;50.55;47.45;;;5.30;99.90;;;;;;5058867;28;20047;-47
2021/12/24 12:24:57;;;;;;;8.60;4.15;;;5.40;99.90;;;;;;5070801;28;20494;-45
2021/12/24 12:27:58;;;;;;;9.07;3.83;;;5.40;99.90;;;;;;5054873;28;20047;-46
2021/12/24 12:30:39;;;;;;;9.50;3.92;;;5.40;99.90;;;;;;5050695;28;20041;-46
2021/12/24 12:33:22;;;;;;;11.45;4.30;;;5.40;99.90;;;;;;5050627;28;20099;-46
2021/12/24 12:35:56;;;;;;;8.77;4.80;;;5.50;99.90;;;;;;5071922;28;20044;-45
2021/12/24 12:38:44;;;;;;;8.80;4.40;;;5.50;99.90;;;;;;5058988;28;20481;-45
2021/12/24 12:41:23;;;;;;;9.60;4.78;;;5.50;99.90;;;;;;5050719;28;20478;-45
2021/12/24 12:43:51;;;;;;;8.70;4.82;;;5.60;99.90;;;;;;5065684;28;20045;-46
2021/12/24 12:46:51;;;;;;;6.07;3.60;;;5.70;99.90;;;;;;5059486;28;20036;-47
2021/12/24 12:49:28;;;;;;;9.15;4.55;;;5.70;99.90;;;;;;5050015;28;20071;-46
2021/12/24 12:51:57;;;;;;;6.68;3.85;;;5.80;99.90;;;;;;5049527;28;20044;-46
2021/12/24 12:54:31;;;;;;;6.60;4.28;;;5.80;99.90;;;;;;5069768;28;20132;-46
2021/12/24 12:57:18;;;;;;;8.27;4.50;;;;;;;;;;5069201;28;20041;-45
2021/12/24 13:00:20;;;;;;;6.28;3.80;;;5.90;99.90;;;;;;5054906;28;20411;-47
2021/12/24 13:03:01;;;;;;;5.68;3.85;;;6.00;99.90;;;;;;5049916;28;20347;-46
2021/12/24 13:05:29;;;;;;;8.95;3.45;;;5.90;99.90;;;;;;5051790;28;20041;-47
2021/12/24 13:07:59;;;;;;;5.68;3.70;;;5.90;99.90;;;;;;5053613;28;20523;-46
2021/12/24 13:10:29;;;;;;;5.25;3.47;;;5.90;99.90;;;;;;5049323;28;20041;-46
2021/12/24 13:13:05;;;;;;;6.35;3.92;;;5.90;99.90;;;;;;5055002;28;20052;-47
2021/12/24 13:15:54;;;;;;;5.38;3.60;;;5.90;99.90;;;;;;5056186;28;20517;-47
2021/12/24 13:18:31;;;;;;;5.18;3.30;;;6.00;99.90;;;;;;5048956;28;20052;-46
2021/12/24 13:23:37;;;;;;;5.72;3.88;;;6.00;99.90;;;;;;5049718;28;20041;-46
2021/12/24 13:26:17;;;;;;;5.10;3.58;;;5.90;99.90;;;;;;5050489;28;20041;-46
2021/12/24 13:29:02;;;;;;;6.05;3.90;;;5.90;99.90;;;;;;5059532;28;20045;-47
2021/12/24 13:31:30;;;;;;;7.25;4.00;;;5.90;99.90;;;;;;5069306;28;20059;-46
2021/12/24 13:33:57;;;;;;;7.03;3.85;;;5.90;99.90;;;;;;5046367;28;20059;-46
2021/12/24 13:36:28;;;;;;;5.80;4.07;;;6.00;99.90;;;;;;5052053;28;20067;-46
2021/12/24 13:39:07;;;;;;;10.98;4.63;;;6.00;99.90;;;;;;5067195;28;20174;-46
2021/12/24 13:41:32;;;;;;;7.00;4.38;;;6.00;99.90;;;;;;5046436;28;20553;-46
2021/12/24 13:43:58;;;;;;;7.20;4.32;;;6.00;99.90;;;;;;5054477;28;20044;-45
2021/12/24 13:46:27;;;;;;;7.63;4.43;;;6.00;99.90;;;;;;5064950;28;20065;-47
2021/12/24 13:56:38;;;;;;;54.53;50.72;;;6.00;99.90;;;;;;5046657;28;20041;-47
2021/12/24 13:59:04;;;;;;;53.20;49.80;;;6.00;99.90;;;;;;5048771;28;20151;-47
2021/12/24 14:01:33;;;;;;;54.35;50.65;;;6.00;99.90;;;;;;5050656;28;20045;-47
2021/12/24 14:04:02;;;;;;;54.00;50.47;;;6.00;99.90;;;;;;5057792;28;20037;-47
2021/12/24 14:06:45;;;;;;;55.28;51.42;;;6.00;99.90;;;;;;5057116;28;20028;-46
2021/12/24 14:09:20;;;;;;;54.05;50.38;;;6.00;99.90;;;;;;5051829;28;20483;-45
2021/12/24 14:11:48;;;;;;;53.80;50.25;;;6.00;99.90;;;;;;5058122;28;20070;-45
2021/12/24 14:14:24;;;;;;;53.38;49.88;;;6.00;99.90;;;;;;5039765;28;20084;-46
2021/12/24 14:19:36;;;;;;;53.42;50.00;;;6.00;99.90;;;;;;5045513;28;20072;-47
2021/12/24 14:22:11;;;;;;;54.25;50.58;;;6.00;99.90;;;;;;5058353;28;20049;-46
2021/12/24 14:24:50;;;;;;;54.00;50.50;;;5.90;99.90;;;;;;5057787;28;20040;-46
2021/12/24 14:27:18;;;;;;;52.13;48.72;;;6.00;99.90;;;;;;5039192;28;20056;-47
2021/12/24 14:30:05;;;;;;;51.67;48.47;;;5.90;99.90;;;;;;5064915;28;20043;-47
2021/12/24 14:32:32;;;;;;;52.45;49.15;;;5.90;99.90;;;;;;5059005;28;20044;-46
2021/12/24 14:35:14;;;;;;;51.65;48.30;;;5.90;99.90;;;;;;5045117;28;20162;-45
2021/12/24 14:37:43;;;;;;;51.40;48.30;;;5.80;99.90;;;;;;5045214;28;20075;-45
2021/12/24 14:40:08;;;;;;;52.28;48.65;;;5.80;99.90;;;;;;5064357;28;20149;-46
2021/12/24 14:42:51;;;;;;;52.22;48.80;;;5.70;99.90;;;;;;5048670;28;20105;-45
2021/12/24 14:45:23;;;;;;;51.17;47.97;;;5.70;99.90;;;;;;5063510;28;20487;-46
2021/12/24 14:48:09;;;;;;;51.28;48.17;;;5.70;99.90;;;;;;5068086;28;20074;-45
2021/12/24 14:50:57;;;;;;;51.47;48.17;;;5.60;99.90;;;;;;5066764;28;20387;-47
2021/12/24 14:53:45;;;;;;;51.38;48.00;;;5.60;99.90;;;;;;5092782;28;20498;-45
2021/12/24 14:56:16;;;;;;;51.70;48.28;;;5.60;99.90;;;;;;5067178;28;20475;-46
2021/12/24 14:58:45;;;;;;;51.03;47.92;;;5.50;99.90;;;;;;5065354;28;20044;-46
2021/12/24 15:01:18;;;;;;;51.78;48.50;;;5.60;99.90;;;;;;5065718;28;20036;-46
2021/12/24 15:03:52;;;;;;;51.28;47.97;;;5.50;99.90;;;;;;5066723;28;20032;-45
2021/12/24 15:06:33;;;;;;;51.58;48.35;;;5.50;99.90;;;;;;5067429;28;20067;-45
2021/12/24 15:09:14;;;;;;;50.65;47.45;;;5.40;99.90;;;;;;5078686;28;20127;-46